sensor_id;sensor_type;location;lat;lon;timestamp;P1;durP1;ratioP1;P2;durP2;ratioP2
15629;SDS011;7914;50.842;0.166;2024-01-25T00:01:09;28.83;;;7.32;;
15629;SDS011;7914;50.842;0.166;2024-01-25T00:03:35;29.63;;;7.35;;
15629;SDS011;7914;50.842;0.166;2024-01-25T00:06:01;29.77;;;6.72;;
15629;SDS011;7914;50.842;0.166;2024-01-25T00:08:27;34.08;;;8.85;;
15629;SDS011;7914;50.842;0.166;2024-01-25T00:10:53;30.83;;;7.38;;
15629;SDS011;7914;50.842;0.166;2024-01-25T00:13:19;30.15;;;5.50;;
15629;SDS011;7914;50.842;0.166;2024-01-25T00:15:44;24.63;;;6.03;;
15629;SDS011;7914;50.842;0.166;2024-01-25T00:18:10;33.58;;;7.18;;
15629;SDS011;7914;50.842;0.166;2024-01-25T00:20:36;28.02;;;5.25;;
15629;SDS011;7914;50.842;0.166;2024-01-25T00:23:02;26.65;;;5.20;;
15629;SDS011;7914;50.842;0.166;2024-01-25T00:25:28;18.17;;;4.03;;
15629;SDS011;7914;50.842;0.166;2024-01-25T00:27:53;26.75;;;6.80;;
15629;SDS011;7914;50.842;0.166;2024-01-25T00:30:19;25.70;;;5.60;;
15629;SDS011;7914;50.842;0.166;2024-01-25T00:32:45;30.45;;;5.43;;
15629;SDS011;7914;50.842;0.166;2024-01-25T00:35:10;19.70;;;4.38;;
15629;SDS011;7914;50.842;0.166;2024-01-25T00:37:39;31.95;;;5.47;;
15629;SDS011;7914;50.842;0.166;2024-01-25T00:40:06;25.38;;;5.15;;
15629;SDS011;7914;50.842;0.166;2024-01-25T00:42:33;24.50;;;4.93;;
15629;SDS011;7914;50.842;0.166;2024-01-25T00:45:06;22.02;;;4.65;;
15629;SDS011;7914;50.842;0.166;2024-01-25T00:47:33;22.77;;;4.00;;
15629;SDS011;7914;50.842;0.166;2024-01-25T00:49:59;22.42;;;5.15;;
15629;SDS011;7914;50.842;0.166;2024-01-25T00:52:25;29.38;;;5.68;;
15629;SDS011;7914;50.842;0.166;2024-01-25T00:54:51;23.67;;;4.85;;
15629;SDS011;7914;50.842;0.166;2024-01-25T00:57:17;30.73;;;7.07;;
15629;SDS011;7914;50.842;0.166;2024-01-25T00:59:43;31.90;;;4.97;;
15629;SDS011;7914;50.842;0.166;2024-01-25T01:02:11;22.85;;;5.65;;
15629;SDS011;7914;50.842;0.166;2024-01-25T01:04:38;26.90;;;5.68;;
15629;SDS011;7914;50.842;0.166;2024-01-25T01:07:05;27.95;;;4.68;;
15629;SDS011;7914;50.842;0.166;2024-01-25T01:09:31;28.88;;;5.70;;
15629;SDS011;7914;50.842;0.166;2024-01-25T01:11:56;46.50;;;15.63;;
15629;SDS011;7914;50.842;0.166;2024-01-25T01:14:22;29.75;;;8.00;;
15629;SDS011;7914;50.842;0.166;2024-01-25T01:16:48;27.90;;;5.85;;
15629;SDS011;7914;50.842;0.166;2024-01-25T01:19:15;22.30;;;7.38;;
15629;SDS011;7914;50.842;0.166;2024-01-25T01:21:41;35.67;;;7.00;;
15629;SDS011;7914;50.842;0.166;2024-01-25T01:24:09;25.17;;;6.25;;
15629;SDS011;7914;50.842;0.166;2024-01-25T01:26:38;21.73;;;5.05;;
15629;SDS011;7914;50.842;0.166;2024-01-25T01:29:06;28.85;;;6.35;;
15629;SDS011;7914;50.842;0.166;2024-01-25T01:31:31;29.60;;;6.75;;
15629;SDS011;7914;50.842;0.166;2024-01-25T01:33:57;27.60;;;6.05;;
15629;SDS011;7914;50.842;0.166;2024-01-25T01:36:23;19.70;;;4.53;;
15629;SDS011;7914;50.842;0.166;2024-01-25T01:38:49;28.85;;;5.10;;
15629;SDS011;7914;50.842;0.166;2024-01-25T01:41:14;23.10;;;5.57;;
15629;SDS011;7914;50.842;0.166;2024-01-25T01:43:40;27.35;;;5.65;;
15629;SDS011;7914;50.842;0.166;2024-01-25T01:46:10;28.90;;;5.75;;
15629;SDS011;7914;50.842;0.166;2024-01-25T01:48:42;27.98;;;5.25;;
15629;SDS011;7914;50.842;0.166;2024-01-25T01:51:08;20.65;;;5.25;;
15629;SDS011;7914;50.842;0.166;2024-01-25T01:53:34;29.30;;;4.70;;
15629;SDS011;7914;50.842;0.166;2024-01-25T01:56:01;20.85;;;5.35;;
15629;SDS011;7914;50.842;0.166;2024-01-25T01:58:27;19.92;;;4.10;;
15629;SDS011;7914;50.842;0.166;2024-01-25T02:00:55;24.15;;;5.18;;
15629;SDS011;7914;50.842;0.166;2024-01-25T02:03:22;15.27;;;4.13;;
15629;SDS011;7914;50.842;0.166;2024-01-25T02:05:48;16.30;;;4.22;;
15629;SDS011;7914;50.842;0.166;2024-01-25T02:08:14;17.85;;;4.70;;
15629;SDS011;7914;50.842;0.166;2024-01-25T02:10:40;24.40;;;4.50;;
15629;SDS011;7914;50.842;0.166;2024-01-25T02:13:05;19.08;;;3.75;;
15629;SDS011;7914;50.842;0.166;2024-01-25T02:15:31;19.42;;;4.22;;
15629;SDS011;7914;50.842;0.166;2024-01-25T02:17:57;16.80;;;4.18;;
15629;SDS011;7914;50.842;0.166;2024-01-25T02:20:23;15.48;;;3.28;;
15629;SDS011;7914;50.842;0.166;2024-01-25T02:22:50;14.13;;;4.90;;
15629;SDS011;7914;50.842;0.166;2024-01-25T02:25:15;18.13;;;3.83;;
15629;SDS011;7914;50.842;0.166;2024-01-25T02:27:41;19.20;;;3.42;;
15629;SDS011;7914;50.842;0.166;2024-01-25T02:30:07;17.65;;;4.20;;
15629;SDS011;7914;50.842;0.166;2024-01-25T02:32:33;22.27;;;4.45;;
15629;SDS011;7914;50.842;0.166;2024-01-25T02:34:59;14.88;;;4.60;;
15629;SDS011;7914;50.842;0.166;2024-01-25T02:37:25;13.77;;;3.55;;
15629;SDS011;7914;50.842;0.166;2024-01-25T02:39:51;19.83;;;3.75;;
15629;SDS011;7914;50.842;0.166;2024-01-25T02:42:18;12.35;;;2.88;;
15629;SDS011;7914;50.842;0.166;2024-01-25T02:44:44;15.95;;;3.60;;
15629;SDS011;7914;50.842;0.166;2024-01-25T02:47:10;16.10;;;3.20;;
15629;SDS011;7914;50.842;0.166;2024-01-25T02:49:35;13.45;;;3.05;;
15629;SDS011;7914;50.842;0.166;2024-01-25T02:52:01;14.55;;;3.65;;
15629;SDS011;7914;50.842;0.166;2024-01-25T02:54:27;16.90;;;3.65;;
15629;SDS011;7914;50.842;0.166;2024-01-25T02:56:53;19.35;;;3.60;;
15629;SDS011;7914;50.842;0.166;2024-01-25T02:59:19;17.88;;;3.58;;
15629;SDS011;7914;50.842;0.166;2024-01-25T03:01:45;13.05;;;3.35;;
15629;SDS011;7914;50.842;0.166;2024-01-25T03:04:11;19.00;;;5.15;;
15629;SDS011;7914;50.842;0.166;2024-01-25T03:06:37;18.48;;;3.85;;
15629;SDS011;7914;50.842;0.166;2024-01-25T03:09:03;21.38;;;3.70;;
15629;SDS011;7914;50.842;0.166;2024-01-25T03:11:31;13.43;;;3.15;;
15629;SDS011;7914;50.842;0.166;2024-01-25T03:13:57;21.42;;;4.03;;
15629;SDS011;7914;50.842;0.166;2024-01-25T03:16:23;16.92;;;4.15;;
15629;SDS011;7914;50.842;0.166;2024-01-25T03:18:49;21.63;;;4.63;;
15629;SDS011;7914;50.842;0.166;2024-01-25T03:21:14;21.83;;;4.35;;
15629;SDS011;7914;50.842;0.166;2024-01-25T03:23:40;29.67;;;5.38;;
15629;SDS011;7914;50.842;0.166;2024-01-25T03:26:06;20.88;;;3.63;;
15629;SDS011;7914;50.842;0.166;2024-01-25T03:28:34;19.90;;;3.58;;
15629;SDS011;7914;50.842;0.166;2024-01-25T03:31:00;26.25;;;3.90;;
15629;SDS011;7914;50.842;0.166;2024-01-25T03:33:26;22.42;;;3.78;;
15629;SDS011;7914;50.842;0.166;2024-01-25T03:35:53;55.72;;;5.68;;
15629;SDS011;7914;50.842;0.166;2024-01-25T03:38:19;29.10;;;4.32;;
15629;SDS011;7914;50.842;0.166;2024-01-25T03:40:45;30.48;;;3.65;;
15629;SDS011;7914;50.842;0.166;2024-01-25T03:43:11;32.03;;;4.50;;
15629;SDS011;7914;50.842;0.166;2024-01-25T03:45:37;30.60;;;5.00;;
15629;SDS011;7914;50.842;0.166;2024-01-25T03:48:03;21.60;;;4.80;;
15629;SDS011;7914;50.842;0.166;2024-01-25T03:50:28;12.73;;;3.72;;
15629;SDS011;7914;50.842;0.166;2024-01-25T03:52:54;24.27;;;4.90;;
15629;SDS011;7914;50.842;0.166;2024-01-25T03:55:20;20.67;;;4.88;;
15629;SDS011;7914;50.842;0.166;2024-01-25T03:57:46;25.23;;;3.90;;
15629;SDS011;7914;50.842;0.166;2024-01-25T04:00:11;36.28;;;4.82;;
15629;SDS011;7914;50.842;0.166;2024-01-25T04:02:37;38.15;;;5.38;;
15629;SDS011;7914;50.842;0.166;2024-01-25T04:05:04;32.95;;;4.68;;
15629;SDS011;7914;50.842;0.166;2024-01-25T04:07:30;19.25;;;4.63;;
15629;SDS011;7914;50.842;0.166;2024-01-25T04:09:55;23.88;;;5.80;;
15629;SDS011;7914;50.842;0.166;2024-01-25T04:12:21;54.15;;;10.63;;
15629;SDS011;7914;50.842;0.166;2024-01-25T04:14:47;32.40;;;5.20;;
15629;SDS011;7914;50.842;0.166;2024-01-25T04:17:13;29.02;;;5.82;;
15629;SDS011;7914;50.842;0.166;2024-01-25T04:19:38;27.65;;;5.43;;
15629;SDS011;7914;50.842;0.166;2024-01-25T04:22:04;31.83;;;5.35;;
15629;SDS011;7914;50.842;0.166;2024-01-25T04:24:30;43.42;;;6.85;;
15629;SDS011;7914;50.842;0.166;2024-01-25T04:26:56;33.40;;;7.28;;
15629;SDS011;7914;50.842;0.166;2024-01-25T04:29:21;36.30;;;6.45;;
15629;SDS011;7914;50.842;0.166;2024-01-25T04:31:47;38.40;;;6.40;;
15629;SDS011;7914;50.842;0.166;2024-01-25T04:34:13;39.38;;;6.85;;
15629;SDS011;7914;50.842;0.166;2024-01-25T04:36:40;33.80;;;7.07;;
15629;SDS011;7914;50.842;0.166;2024-01-25T04:39:06;43.53;;;6.75;;
15629;SDS011;7914;50.842;0.166;2024-01-25T04:41:31;47.10;;;8.52;;
15629;SDS011;7914;50.842;0.166;2024-01-25T04:43:57;40.40;;;6.15;;
15629;SDS011;7914;50.842;0.166;2024-01-25T04:46:23;31.77;;;6.43;;
15629;SDS011;7914;50.842;0.166;2024-01-25T04:48:49;45.28;;;7.13;;
15629;SDS011;7914;50.842;0.166;2024-01-25T04:51:18;48.92;;;7.28;;
15629;SDS011;7914;50.842;0.166;2024-01-25T04:53:45;61.70;;;7.43;;
15629;SDS011;7914;50.842;0.166;2024-01-25T04:56:11;48.63;;;8.60;;
15629;SDS011;7914;50.842;0.166;2024-01-25T04:58:37;33.97;;;6.47;;
15629;SDS011;7914;50.842;0.166;2024-01-25T05:01:02;36.63;;;7.53;;
15629;SDS011;7914;50.842;0.166;2024-01-25T05:03:29;29.58;;;5.28;;
15629;SDS011;7914;50.842;0.166;2024-01-25T05:05:55;37.05;;;7.40;;
15629;SDS011;7914;50.842;0.166;2024-01-25T05:08:22;30.52;;;6.22;;
15629;SDS011;7914;50.842;0.166;2024-01-25T05:10:47;48.08;;;6.88;;
15629;SDS011;7914;50.842;0.166;2024-01-25T05:13:13;34.97;;;7.88;;
15629;SDS011;7914;50.842;0.166;2024-01-25T05:15:39;22.27;;;5.15;;
15629;SDS011;7914;50.842;0.166;2024-01-25T05:18:04;36.78;;;5.45;;
15629;SDS011;7914;50.842;0.166;2024-01-25T05:20:31;28.67;;;4.88;;
15629;SDS011;7914;50.842;0.166;2024-01-25T05:23:01;18.63;;;4.63;;
15629;SDS011;7914;50.842;0.166;2024-01-25T05:25:27;24.25;;;5.93;;
15629;SDS011;7914;50.842;0.166;2024-01-25T05:27:54;27.80;;;5.57;;
15629;SDS011;7914;50.842;0.166;2024-01-25T05:30:21;21.65;;;5.18;;
15629;SDS011;7914;50.842;0.166;2024-01-25T05:32:47;17.02;;;4.18;;
15629;SDS011;7914;50.842;0.166;2024-01-25T05:35:14;18.42;;;5.93;;
15629;SDS011;7914;50.842;0.166;2024-01-25T05:37:40;22.35;;;4.00;;
15629;SDS011;7914;50.842;0.166;2024-01-25T05:40:06;15.82;;;3.50;;
15629;SDS011;7914;50.842;0.166;2024-01-25T05:42:34;17.60;;;3.30;;
15629;SDS011;7914;50.842;0.166;2024-01-25T05:45:00;13.32;;;3.70;;
15629;SDS011;7914;50.842;0.166;2024-01-25T05:47:28;17.30;;;4.13;;
15629;SDS011;7914;50.842;0.166;2024-01-25T05:49:53;17.92;;;3.75;;
15629;SDS011;7914;50.842;0.166;2024-01-25T05:52:20;18.45;;;4.57;;
15629;SDS011;7914;50.842;0.166;2024-01-25T05:54:46;19.67;;;3.47;;
15629;SDS011;7914;50.842;0.166;2024-01-25T05:57:12;15.05;;;3.65;;
15629;SDS011;7914;50.842;0.166;2024-01-25T05:59:38;15.60;;;3.30;;
15629;SDS011;7914;50.842;0.166;2024-01-25T06:02:04;14.73;;;3.22;;
15629;SDS011;7914;50.842;0.166;2024-01-25T06:04:30;22.05;;;3.63;;
15629;SDS011;7914;50.842;0.166;2024-01-25T06:06:56;20.58;;;4.38;;
15629;SDS011;7914;50.842;0.166;2024-01-25T06:09:23;15.60;;;3.72;;
15629;SDS011;7914;50.842;0.166;2024-01-25T06:11:50;14.45;;;4.97;;
15629;SDS011;7914;50.842;0.166;2024-01-25T06:14:16;23.25;;;6.35;;
15629;SDS011;7914;50.842;0.166;2024-01-25T06:16:42;15.63;;;2.92;;
15629;SDS011;7914;50.842;0.166;2024-01-25T06:19:08;18.33;;;3.25;;
15629;SDS011;7914;50.842;0.166;2024-01-25T06:21:34;14.43;;;3.13;;
15629;SDS011;7914;50.842;0.166;2024-01-25T06:24:06;20.17;;;3.58;;
15629;SDS011;7914;50.842;0.166;2024-01-25T06:26:33;15.43;;;2.72;;
15629;SDS011;7914;50.842;0.166;2024-01-25T06:28:58;13.45;;;2.13;;
15629;SDS011;7914;50.842;0.166;2024-01-25T06:31:24;12.40;;;2.10;;
15629;SDS011;7914;50.842;0.166;2024-01-25T06:33:51;10.68;;;1.92;;
15629;SDS011;7914;50.842;0.166;2024-01-25T06:36:20;11.85;;;2.22;;
15629;SDS011;7914;50.842;0.166;2024-01-25T06:38:47;11.75;;;2.03;;
15629;SDS011;7914;50.842;0.166;2024-01-25T06:41:13;14.45;;;2.50;;
15629;SDS011;7914;50.842;0.166;2024-01-25T06:43:39;15.35;;;3.22;;
15629;SDS011;7914;50.842;0.166;2024-01-25T06:46:06;17.05;;;3.00;;
15629;SDS011;7914;50.842;0.166;2024-01-25T06:48:32;14.82;;;3.38;;
15629;SDS011;7914;50.842;0.166;2024-01-25T06:50:58;14.48;;;2.47;;
15629;SDS011;7914;50.842;0.166;2024-01-25T06:53:23;13.80;;;3.20;;
15629;SDS011;7914;50.842;0.166;2024-01-25T06:55:49;13.77;;;2.58;;
15629;SDS011;7914;50.842;0.166;2024-01-25T06:58:15;14.70;;;2.75;;
15629;SDS011;7914;50.842;0.166;2024-01-25T07:00:41;14.68;;;3.55;;
15629;SDS011;7914;50.842;0.166;2024-01-25T07:03:07;20.65;;;3.80;;
15629;SDS011;7914;50.842;0.166;2024-01-25T07:05:34;21.83;;;3.88;;
15629;SDS011;7914;50.842;0.166;2024-01-25T07:08:00;15.27;;;3.55;;
15629;SDS011;7914;50.842;0.166;2024-01-25T07:10:27;22.33;;;3.67;;
15629;SDS011;7914;50.842;0.166;2024-01-25T07:12:52;21.15;;;4.05;;
15629;SDS011;7914;50.842;0.166;2024-01-25T07:15:19;18.77;;;3.83;;
15629;SDS011;7914;50.842;0.166;2024-01-25T07:17:45;17.23;;;3.45;;
15629;SDS011;7914;50.842;0.166;2024-01-25T07:20:10;18.23;;;3.75;;
15629;SDS011;7914;50.842;0.166;2024-01-25T07:22:37;20.08;;;3.08;;
15629;SDS011;7914;50.842;0.166;2024-01-25T07:25:03;15.75;;;3.53;;
15629;SDS011;7914;50.842;0.166;2024-01-25T07:27:29;18.02;;;3.20;;
15629;SDS011;7914;50.842;0.166;2024-01-25T07:29:55;19.10;;;4.13;;
15629;SDS011;7914;50.842;0.166;2024-01-25T07:32:20;19.35;;;3.70;;
15629;SDS011;7914;50.842;0.166;2024-01-25T07:34:46;20.70;;;3.03;;
15629;SDS011;7914;50.842;0.166;2024-01-25T07:37:12;17.92;;;3.00;;
15629;SDS011;7914;50.842;0.166;2024-01-25T07:39:38;20.48;;;3.38;;
15629;SDS011;7914;50.842;0.166;2024-01-25T07:42:04;17.48;;;3.47;;
15629;SDS011;7914;50.842;0.166;2024-01-25T07:44:30;16.13;;;3.50;;
15629;SDS011;7914;50.842;0.166;2024-01-25T07:46:55;15.55;;;4.53;;
15629;SDS011;7914;50.842;0.166;2024-01-25T07:49:21;12.27;;;3.28;;
15629;SDS011;7914;50.842;0.166;2024-01-25T07:51:47;17.67;;;3.00;;
15629;SDS011;7914;50.842;0.166;2024-01-25T07:54:14;14.43;;;3.40;;
15629;SDS011;7914;50.842;0.166;2024-01-25T07:56:40;14.52;;;3.17;;
15629;SDS011;7914;50.842;0.166;2024-01-25T07:59:05;13.75;;;3.50;;
15629;SDS011;7914;50.842;0.166;2024-01-25T08:01:31;13.95;;;3.75;;
15629;SDS011;7914;50.842;0.166;2024-01-25T08:03:56;17.13;;;4.55;;
15629;SDS011;7914;50.842;0.166;2024-01-25T08:06:23;16.80;;;3.50;;
15629;SDS011;7914;50.842;0.166;2024-01-25T08:08:49;19.33;;;5.38;;
15629;SDS011;7914;50.842;0.166;2024-01-25T08:11:14;13.30;;;3.70;;
15629;SDS011;7914;50.842;0.166;2024-01-25T08:13:43;17.15;;;4.90;;
15629;SDS011;7914;50.842;0.166;2024-01-25T08:16:09;22.17;;;4.82;;
15629;SDS011;7914;50.842;0.166;2024-01-25T08:18:36;23.13;;;6.22;;
15629;SDS011;7914;50.842;0.166;2024-01-25T08:21:02;22.85;;;6.75;;
15629;SDS011;7914;50.842;0.166;2024-01-25T08:23:27;22.00;;;6.20;;
15629;SDS011;7914;50.842;0.166;2024-01-25T08:25:53;22.00;;;7.50;;
15629;SDS011;7914;50.842;0.166;2024-01-25T08:28:19;18.48;;;5.78;;
15629;SDS011;7914;50.842;0.166;2024-01-25T08:30:45;17.48;;;6.15;;
15629;SDS011;7914;50.842;0.166;2024-01-25T08:33:11;19.63;;;5.32;;
15629;SDS011;7914;50.842;0.166;2024-01-25T08:35:37;20.48;;;4.40;;
15629;SDS011;7914;50.842;0.166;2024-01-25T08:38:02;18.73;;;5.03;;
15629;SDS011;7914;50.842;0.166;2024-01-25T08:40:29;18.33;;;5.18;;
15629;SDS011;7914;50.842;0.166;2024-01-25T08:42:55;20.40;;;5.53;;
15629;SDS011;7914;50.842;0.166;2024-01-25T08:45:20;21.35;;;4.95;;
15629;SDS011;7914;50.842;0.166;2024-01-25T08:47:46;14.85;;;4.30;;
15629;SDS011;7914;50.842;0.166;2024-01-25T08:50:12;17.25;;;5.03;;
15629;SDS011;7914;50.842;0.166;2024-01-25T08:52:37;22.50;;;5.13;;
15629;SDS011;7914;50.842;0.166;2024-01-25T08:55:06;21.20;;;5.50;;
15629;SDS011;7914;50.842;0.166;2024-01-25T08:57:32;27.48;;;6.30;;
15629;SDS011;7914;50.842;0.166;2024-01-25T08:59:58;18.98;;;5.88;;
15629;SDS011;7914;50.842;0.166;2024-01-25T09:02:24;19.83;;;6.47;;
15629;SDS011;7914;50.842;0.166;2024-01-25T09:04:52;22.33;;;5.90;;
15629;SDS011;7914;50.842;0.166;2024-01-25T09:07:21;26.17;;;4.60;;
15629;SDS011;7914;50.842;0.166;2024-01-25T09:09:48;19.60;;;4.70;;
15629;SDS011;7914;50.842;0.166;2024-01-25T09:12:14;19.42;;;4.50;;
15629;SDS011;7914;50.842;0.166;2024-01-25T09:14:41;11.23;;;3.75;;
15629;SDS011;7914;50.842;0.166;2024-01-25T09:17:07;17.10;;;4.32;;
15629;SDS011;7914;50.842;0.166;2024-01-25T09:19:34;15.63;;;4.65;;
15629;SDS011;7914;50.842;0.166;2024-01-25T09:21:59;18.65;;;5.57;;
15629;SDS011;7914;50.842;0.166;2024-01-25T09:24:29;19.08;;;5.00;;
15629;SDS011;7914;50.842;0.166;2024-01-25T09:26:56;19.42;;;4.18;;
15629;SDS011;7914;50.842;0.166;2024-01-25T09:29:24;15.10;;;4.20;;
15629;SDS011;7914;50.842;0.166;2024-01-25T09:31:50;17.27;;;4.03;;
15629;SDS011;7914;50.842;0.166;2024-01-25T09:34:15;14.32;;;4.40;;
15629;SDS011;7914;50.842;0.166;2024-01-25T09:36:41;14.85;;;3.55;;
15629;SDS011;7914;50.842;0.166;2024-01-25T09:39:07;19.70;;;4.60;;
15629;SDS011;7914;50.842;0.166;2024-01-25T09:41:33;19.67;;;5.20;;
15629;SDS011;7914;50.842;0.166;2024-01-25T09:43:59;14.57;;;5.82;;
15629;SDS011;7914;50.842;0.166;2024-01-25T09:46:25;13.65;;;5.10;;
15629;SDS011;7914;50.842;0.166;2024-01-25T09:48:51;21.35;;;4.38;;
15629;SDS011;7914;50.842;0.166;2024-01-25T09:51:17;9.70;;;4.05;;
15629;SDS011;7914;50.842;0.166;2024-01-25T09:53:43;15.35;;;4.25;;
15629;SDS011;7914;50.842;0.166;2024-01-25T09:56:13;16.42;;;4.25;;
15629;SDS011;7914;50.842;0.166;2024-01-25T09:58:44;25.30;;;4.50;;
15629;SDS011;7914;50.842;0.166;2024-01-25T10:01:14;22.42;;;4.32;;
15629;SDS011;7914;50.842;0.166;2024-01-25T10:03:44;15.00;;;3.92;;
15629;SDS011;7914;50.842;0.166;2024-01-25T10:06:11;19.00;;;3.83;;
15629;SDS011;7914;50.842;0.166;2024-01-25T10:08:37;16.67;;;3.95;;
15629;SDS011;7914;50.842;0.166;2024-01-25T10:11:03;17.65;;;4.32;;
15629;SDS011;7914;50.842;0.166;2024-01-25T10:13:30;13.30;;;4.05;;
15629;SDS011;7914;50.842;0.166;2024-01-25T10:15:56;14.38;;;3.95;;
15629;SDS011;7914;50.842;0.166;2024-01-25T10:18:22;13.50;;;3.60;;
15629;SDS011;7914;50.842;0.166;2024-01-25T10:20:48;19.50;;;4.13;;
15629;SDS011;7914;50.842;0.166;2024-01-25T10:23:14;18.60;;;3.92;;
15629;SDS011;7914;50.842;0.166;2024-01-25T10:25:39;17.20;;;4.30;;
15629;SDS011;7914;50.842;0.166;2024-01-25T10:28:06;20.80;;;4.15;;
15629;SDS011;7914;50.842;0.166;2024-01-25T10:30:33;18.92;;;3.22;;
15629;SDS011;7914;50.842;0.166;2024-01-25T10:33:00;16.48;;;3.15;;
15629;SDS011;7914;50.842;0.166;2024-01-25T10:35:27;22.67;;;4.05;;
15629;SDS011;7914;50.842;0.166;2024-01-25T10:37:54;13.63;;;3.67;;
15629;SDS011;7914;50.842;0.166;2024-01-25T10:40:20;16.25;;;3.63;;
15629;SDS011;7914;50.842;0.166;2024-01-25T10:42:47;18.27;;;3.92;;
15629;SDS011;7914;50.842;0.166;2024-01-25T10:45:13;12.27;;;3.17;;
15629;SDS011;7914;50.842;0.166;2024-01-25T10:47:39;12.48;;;3.13;;
15629;SDS011;7914;50.842;0.166;2024-01-25T10:50:11;15.65;;;3.25;;
15629;SDS011;7914;50.842;0.166;2024-01-25T10:52:39;17.55;;;3.17;;
15629;SDS011;7914;50.842;0.166;2024-01-25T10:55:06;17.58;;;3.65;;
15629;SDS011;7914;50.842;0.166;2024-01-25T10:57:36;14.75;;;2.83;;
15629;SDS011;7914;50.842;0.166;2024-01-25T11:00:10;12.82;;;2.80;;
15629;SDS011;7914;50.842;0.166;2024-01-25T11:02:43;13.15;;;3.38;;
15629;SDS011;7914;50.842;0.166;2024-01-25T11:05:10;7.15;;;2.50;;
15629;SDS011;7914;50.842;0.166;2024-01-25T11:07:47;12.32;;;3.20;;
15629;SDS011;7914;50.842;0.166;2024-01-25T11:10:18;18.65;;;3.40;;
15629;SDS011;7914;50.842;0.166;2024-01-25T11:12:48;14.93;;;3.22;;
15629;SDS011;7914;50.842;0.166;2024-01-25T11:15:29;13.93;;;3.10;;
15629;SDS011;7914;50.842;0.166;2024-01-25T11:17:56;11.63;;;3.05;;
15629;SDS011;7914;50.842;0.166;2024-01-25T11:20:22;13.23;;;2.95;;
15629;SDS011;7914;50.842;0.166;2024-01-25T11:22:55;16.35;;;2.80;;
15629;SDS011;7914;50.842;0.166;2024-01-25T11:25:30;18.92;;;3.83;;
15629;SDS011;7914;50.842;0.166;2024-01-25T11:27:57;12.35;;;3.38;;
15629;SDS011;7914;50.842;0.166;2024-01-25T11:30:25;7.82;;;2.40;;
15629;SDS011;7914;50.842;0.166;2024-01-25T11:32:51;14.95;;;3.28;;
15629;SDS011;7914;50.842;0.166;2024-01-25T11:35:17;11.85;;;2.80;;
15629;SDS011;7914;50.842;0.166;2024-01-25T11:37:47;10.13;;;2.38;;
15629;SDS011;7914;50.842;0.166;2024-01-25T11:40:14;14.73;;;2.67;;
15629;SDS011;7914;50.842;0.166;2024-01-25T11:42:44;11.55;;;3.15;;
15629;SDS011;7914;50.842;0.166;2024-01-25T11:45:14;13.23;;;3.63;;
15629;SDS011;7914;50.842;0.166;2024-01-25T11:47:41;15.20;;;3.22;;
15629;SDS011;7914;50.842;0.166;2024-01-25T11:50:08;10.40;;;2.35;;
15629;SDS011;7914;50.842;0.166;2024-01-25T11:52:36;14.73;;;4.20;;
15629;SDS011;7914;50.842;0.166;2024-01-25T11:55:03;9.13;;;2.53;;
15629;SDS011;7914;50.842;0.166;2024-01-25T11:57:30;9.15;;;2.70;;
15629;SDS011;7914;50.842;0.166;2024-01-25T11:59:59;12.88;;;2.70;;
15629;SDS011;7914;50.842;0.166;2024-01-25T12:02:26;11.10;;;1.98;;
15629;SDS011;7914;50.842;0.166;2024-01-25T12:04:52;9.80;;;2.90;;
15629;SDS011;7914;50.842;0.166;2024-01-25T12:07:20;11.98;;;2.75;;
15629;SDS011;7914;50.842;0.166;2024-01-25T12:09:59;12.48;;;2.90;;
15629;SDS011;7914;50.842;0.166;2024-01-25T12:12:29;11.65;;;2.45;;
15629;SDS011;7914;50.842;0.166;2024-01-25T12:14:59;12.15;;;2.95;;
15629;SDS011;7914;50.842;0.166;2024-01-25T12:17:26;10.75;;;3.35;;
15629;SDS011;7914;50.842;0.166;2024-01-25T12:19:56;11.25;;;2.70;;
15629;SDS011;7914;50.842;0.166;2024-01-25T12:22:23;14.32;;;3.10;;
15629;SDS011;7914;50.842;0.166;2024-01-25T12:24:50;14.52;;;2.95;;
15629;SDS011;7914;50.842;0.166;2024-01-25T12:27:19;13.35;;;3.05;;
15629;SDS011;7914;50.842;0.166;2024-01-25T12:29:47;9.73;;;2.42;;
15629;SDS011;7914;50.842;0.166;2024-01-25T12:32:13;17.30;;;2.90;;
15629;SDS011;7914;50.842;0.166;2024-01-25T12:34:39;10.18;;;3.03;;
15629;SDS011;7914;50.842;0.166;2024-01-25T12:37:06;13.88;;;2.85;;
15629;SDS011;7914;50.842;0.166;2024-01-25T12:39:32;10.85;;;2.63;;
15629;SDS011;7914;50.842;0.166;2024-01-25T12:41:58;12.57;;;2.83;;
15629;SDS011;7914;50.842;0.166;2024-01-25T12:44:24;11.18;;;2.75;;
15629;SDS011;7914;50.842;0.166;2024-01-25T12:46:50;7.05;;;2.63;;
15629;SDS011;7914;50.842;0.166;2024-01-25T12:49:16;13.65;;;2.97;;
15629;SDS011;7914;50.842;0.166;2024-01-25T12:51:42;12.85;;;2.63;;
15629;SDS011;7914;50.842;0.166;2024-01-25T12:54:08;14.23;;;2.85;;
15629;SDS011;7914;50.842;0.166;2024-01-25T12:56:34;15.50;;;2.78;;
15629;SDS011;7914;50.842;0.166;2024-01-25T12:59:00;13.77;;;2.50;;
15629;SDS011;7914;50.842;0.166;2024-01-25T13:01:26;9.73;;;2.20;;
15629;SDS011;7914;50.842;0.166;2024-01-25T13:03:52;10.20;;;2.55;;
15629;SDS011;7914;50.842;0.166;2024-01-25T13:06:18;11.85;;;1.90;;
15629;SDS011;7914;50.842;0.166;2024-01-25T13:08:44;8.55;;;2.17;;
15629;SDS011;7914;50.842;0.166;2024-01-25T13:11:11;10.75;;;2.72;;
15629;SDS011;7914;50.842;0.166;2024-01-25T13:13:37;13.52;;;3.05;;
15629;SDS011;7914;50.842;0.166;2024-01-25T13:16:03;16.17;;;2.10;;
15629;SDS011;7914;50.842;0.166;2024-01-25T13:18:28;7.22;;;1.50;;
15629;SDS011;7914;50.842;0.166;2024-01-25T13:20:54;9.40;;;1.98;;
15629;SDS011;7914;50.842;0.166;2024-01-25T13:23:20;10.52;;;2.25;;
15629;SDS011;7914;50.842;0.166;2024-01-25T13:25:46;8.82;;;1.58;;
15629;SDS011;7914;50.842;0.166;2024-01-25T13:28:11;8.80;;;1.88;;
15629;SDS011;7914;50.842;0.166;2024-01-25T13:30:37;9.52;;;1.88;;
15629;SDS011;7914;50.842;0.166;2024-01-25T13:33:03;12.38;;;2.03;;
15629;SDS011;7914;50.842;0.166;2024-01-25T13:35:28;7.75;;;1.48;;
15629;SDS011;7914;50.842;0.166;2024-01-25T13:37:54;5.80;;;1.60;;
15629;SDS011;7914;50.842;0.166;2024-01-25T13:40:26;8.70;;;1.35;;
15629;SDS011;7914;50.842;0.166;2024-01-25T13:42:51;9.07;;;1.58;;
15629;SDS011;7914;50.842;0.166;2024-01-25T13:45:17;4.72;;;1.48;;
15629;SDS011;7914;50.842;0.166;2024-01-25T13:47:44;5.25;;;1.30;;
15629;SDS011;7914;50.842;0.166;2024-01-25T13:50:09;7.90;;;1.65;;
15629;SDS011;7914;50.842;0.166;2024-01-25T13:52:35;8.65;;;2.00;;
15629;SDS011;7914;50.842;0.166;2024-01-25T13:55:01;4.90;;;1.10;;
15629;SDS011;7914;50.842;0.166;2024-01-25T13:57:26;4.10;;;1.38;;
15629;SDS011;7914;50.842;0.166;2024-01-25T13:59:52;7.05;;;1.73;;
15629;SDS011;7914;50.842;0.166;2024-01-25T14:02:18;8.27;;;1.38;;
15629;SDS011;7914;50.842;0.166;2024-01-25T14:04:43;3.67;;;1.05;;
15629;SDS011;7914;50.842;0.166;2024-01-25T14:07:09;5.82;;;1.45;;
15629;SDS011;7914;50.842;0.166;2024-01-25T14:09:35;6.78;;;1.00;;
15629;SDS011;7914;50.842;0.166;2024-01-25T14:12:03;8.88;;;1.85;;
15629;SDS011;7914;50.842;0.166;2024-01-25T14:14:29;5.72;;;1.33;;
15629;SDS011;7914;50.842;0.166;2024-01-25T14:16:54;7.10;;;1.55;;
15629;SDS011;7914;50.842;0.166;2024-01-25T14:19:20;8.90;;;1.63;;
15629;SDS011;7914;50.842;0.166;2024-01-25T14:21:46;5.68;;;1.42;;
15629;SDS011;7914;50.842;0.166;2024-01-25T14:24:14;4.07;;;1.00;;
15629;SDS011;7914;50.842;0.166;2024-01-25T14:26:39;5.47;;;1.40;;
15629;SDS011;7914;50.842;0.166;2024-01-25T14:29:05;2.15;;;0.90;;
15629;SDS011;7914;50.842;0.166;2024-01-25T14:31:31;4.88;;;1.20;;
15629;SDS011;7914;50.842;0.166;2024-01-25T14:33:56;6.40;;;1.60;;
15629;SDS011;7914;50.842;0.166;2024-01-25T14:36:22;10.05;;;2.00;;
15629;SDS011;7914;50.842;0.166;2024-01-25T14:38:48;5.05;;;1.00;;
15629;SDS011;7914;50.842;0.166;2024-01-25T14:41:14;2.83;;;1.05;;
15629;SDS011;7914;50.842;0.166;2024-01-25T14:43:39;3.17;;;0.85;;
15629;SDS011;7914;50.842;0.166;2024-01-25T14:46:06;3.60;;;1.38;;